Time;durP1;ratioP1;P1;durP2;ratioP2;P2;SDS_P1;SDS_P2;PMS_P1;PMS_P2;Temp;Humidity;BMP_temperature;BMP_pressure;BME280_temperature;BME280_humidity;BME280_pressure;Samples;Min_cycle;Max_cycle;Signal;HPM_P1;HPM_P2
2022/01/14 00:01:58;;;;;;;26.50;15.00;;;2.00;99.90;;;;;;5027598;28;20444;-83
2022/01/14 00:04:24;;;;;;;25.27;14.30;;;2.10;99.90;;;;;;5026321;28;20445;-83
2022/01/14 00:06:50;;;;;;;25.80;16.73;;;2.10;99.90;;;;;;5026686;28;20187;-84
2022/01/14 00:09:16;;;;;;;23.40;15.57;;;2.10;99.90;;;;;;5027895;28;20419;-84
2022/01/14 00:11:47;;;;;;;24.67;14.30;;;2.20;99.90;;;;;;5045167;28;20175;-84
2022/01/14 00:16:43;;;;;;;22.70;13.07;;;2.20;99.90;;;;;;5044450;28;20434;-83
2022/01/14 00:19:09;;;;;;;27.23;16.03;;;2.20;99.90;;;;;;5026984;28;20429;-83
2022/01/14 00:21:37;;;;;;;26.87;13.77;;;2.20;99.90;;;;;;5027250;28;20474;-83
2022/01/14 00:24:09;;;;;;;24.73;15.70;;;2.20;99.90;;;;;;5045334;28;20449;-83
2022/01/14 00:32:01;;;;;;;24.47;14.33;;;2.20;99.90;;;;;;5046329;28;20955;-82
2022/01/14 00:34:27;;;;;;;24.80;14.30;;;2.20;99.90;;;;;;5047417;28;20431;-83
2022/01/14 00:36:53;;;;;;;23.20;13.30;;;2.20;99.90;;;;;;5029362;28;20444;-83
2022/01/14 00:39:19;;;;;;;26.03;15.87;;;2.20;99.90;;;;;;5029835;28;20251;-83
2022/01/14 00:41:44;;;;;;;24.87;14.07;;;2.20;99.90;;;;;;5047008;28;20422;-83
2022/01/14 00:44:15;;;;;;;22.60;12.87;;;2.20;99.90;;;;;;5046608;28;20203;-82
2022/01/14 00:46:44;;;;;;;24.43;13.90;;;2.20;99.90;;;;;;5028687;28;20191;-82
2022/01/14 00:49:10;;;;;;;20.43;13.73;;;2.20;99.90;;;;;;5029320;28;20418;-82
2022/01/14 00:51:36;;;;;;;18.67;15.00;;;2.20;99.90;;;;;;5028876;28;20430;-83
2022/01/14 00:54:04;;;;;;;25.07;13.30;;;2.20;99.90;;;;;;5028916;28;20524;-82
2022/01/14 00:56:33;;;;;;;22.17;13.30;;;2.20;99.90;;;;;;5029909;28;20671;-82
2022/01/14 00:59:15;;;;;;;27.30;13.20;;;2.20;99.90;;;;;;5028812;28;20432;-82
2022/01/14 01:01:51;;;;;;;20.47;12.20;;;2.10;99.90;;;;;;5029504;28;20432;-83
2022/01/14 01:04:20;;;;;;;21.83;14.23;;;2.10;99.90;;;;;;5046504;28;20472;-83
2022/01/14 01:06:47;;;;;;;19.50;12.50;;;2.10;99.90;;;;;;5029449;28;20428;-83
2022/01/14 01:09:14;;;;;;;28.47;14.60;;;2.10;99.90;;;;;;5046822;28;20418;-83
2022/01/14 01:11:51;;;;;;;25.10;12.80;;;2.10;99.90;;;;;;5028342;28;20441;-83
2022/01/14 01:14:24;;;;;;;24.60;13.10;;;2.10;99.90;;;;;;5028007;28;20506;-83
2022/01/14 01:16:49;;;;;;;21.80;12.93;;;2.10;99.90;;;;;;5046635;28;20417;-82
2022/01/14 01:19:15;;;;;;;22.33;14.73;;;2.00;99.90;;;;;;5047142;28;20400;-82
2022/01/14 01:21:41;;;;;;;21.23;12.63;;;2.00;99.90;;;;;;5046320;28;20199;-83
2022/01/14 01:24:09;;;;;;;23.77;12.00;;;2.00;99.90;;;;;;5029353;28;20453;-82
2022/01/14 01:26:39;;;;;;;22.17;12.50;;;1.90;99.90;;;;;;5029536;28;20186;-82
2022/01/14 01:31:36;;;;;;;22.70;12.53;;;1.90;99.90;;;;;;5048825;28;20430;-82
2022/01/14 01:34:13;;;;;;;21.20;12.70;;;1.90;99.90;;;;;;5034098;28;20480;-82
2022/01/14 01:36:41;;;;;;;22.67;12.90;;;1.90;99.90;;;;;;5050527;28;20518;-82
2022/01/14 01:39:09;;;;;;;21.07;12.33;;;1.80;99.90;;;;;;5050202;28;20423;-83
2022/01/14 01:41:36;;;;;;;22.23;12.20;;;1.80;99.90;;;;;;5033893;28;20532;-83
2022/01/14 01:44:06;;;;;;;23.47;13.60;;;1.80;99.90;;;;;;5033629;28;20458;-82
2022/01/14 01:46:33;;;;;;;19.17;12.37;;;1.80;99.90;;;;;;5051937;28;20429;-82
2022/01/14 01:48:58;;;;;;;18.87;12.10;;;1.80;99.90;;;;;;5034322;28;20447;-82
2022/01/14 01:51:24;;;;;;;21.17;11.77;;;1.70;99.90;;;;;;5050934;28;20425;-83
2022/01/14 01:53:50;;;;;;;23.90;14.00;;;1.70;99.90;;;;;;5051893;28;20217;-81
2022/01/14 01:56:17;;;;;;;19.30;11.83;;;1.70;99.90;;;;;;5051522;28;20208;-83
2022/01/14 01:58:43;;;;;;;22.23;13.43;;;1.70;99.90;;;;;;5032908;28;20432;-82
2022/01/14 02:01:09;;;;;;;24.37;13.40;;;1.70;99.90;;;;;;5033546;28;20444;-82
2022/01/14 02:03:37;;;;;;;24.33;13.97;;;1.70;99.90;;;;;;5050915;28;20415;-82
2022/01/14 02:06:03;;;;;;;20.90;14.10;;;1.70;99.90;;;;;;5033093;28;20423;-82
2022/01/14 02:08:29;;;;;;;22.03;12.97;;;1.70;99.90;;;;;;5051284;28;20441;-82
2022/01/14 02:10:54;;;;;;;27.27;13.03;;;1.60;99.90;;;;;;5033342;28;20458;-82
2022/01/14 02:13:20;;;;;;;24.03;13.27;;;1.60;99.90;;;;;;5049866;28;20216;-82
2022/01/14 02:18:33;;;;;;;26.80;10.90;;;1.60;99.90;;;;;;5050611;28;20185;-82
2022/01/14 02:23:51;;;;;;;19.53;11.77;;;1.50;99.90;;;;;;5050927;28;20424;-82
2022/01/14 02:26:18;;;;;;;16.87;11.30;;;1.40;99.90;;;;;;5050628;28;20419;-82
2022/01/14 02:28:46;;;;;;;25.10;13.20;;;1.40;99.90;;;;;;5032918;28;20463;-82
2022/01/14 02:31:11;;;;;;;22.67;10.67;;;1.40;99.90;;;;;;5032806;28;20435;-82
2022/01/14 02:33:37;;;;;;;24.57;13.07;;;1.40;99.90;;;;;;5032887;28;20475;-82
2022/01/14 02:36:05;;;;;;;21.07;13.00;;;1.40;99.90;;;;;;5033144;28;20251;-82
2022/01/14 02:38:31;;;;;;;23.50;12.90;;;1.40;99.90;;;;;;5050293;28;20178;-82
2022/01/14 02:40:57;;;;;;;21.77;12.47;;;1.40;99.90;;;;;;5033472;28;20526;-82
2022/01/14 02:43:25;;;;;;;23.17;14.00;;;1.40;99.90;;;;;;5031577;28;20183;-82
2022/01/14 02:45:53;;;;;;;20.87;12.60;;;1.40;99.90;;;;;;5032567;28;20490;-82
2022/01/14 02:48:21;;;;;;;21.37;13.17;;;1.40;99.90;;;;;;5032846;28;20801;-82
2022/01/14 02:50:57;;;;;;;22.27;12.77;;;1.30;99.90;;;;;;5051087;28;20415;-82
2022/01/14 02:53:43;;;;;;;21.10;12.90;;;1.30;99.90;;;;;;5033351;28;20513;-82
2022/01/14 02:56:10;;;;;;;17.10;10.70;;;1.20;99.90;;;;;;5050031;28;20409;-82
2022/01/14 02:58:37;;;;;;;17.90;11.30;;;1.20;99.90;;;;;;5051112;28;20416;-82
2022/01/14 03:01:15;;;;;;;28.47;12.70;;;1.20;99.90;;;;;;5032646;28;20433;-82
2022/01/14 03:03:45;;;;;;;23.33;12.43;;;1.20;99.90;;;;;;5033545;28;20410;-82
2022/01/14 03:06:12;;;;;;;20.53;12.10;;;1.20;99.90;;;;;;5049840;28;20411;-82
2022/01/14 03:08:38;;;;;;;18.50;11.47;;;1.20;99.90;;;;;;5032752;28;20457;-82
2022/01/14 03:11:30;;;;;;;20.17;12.00;;;1.20;99.90;;;;;;5033315;28;20423;-82
2022/01/14 03:13:57;;;;;;;19.83;11.07;;;1.20;99.90;;;;;;5050882;28;20490;-81
2022/01/14 03:16:24;;;;;;;23.40;11.27;;;1.20;99.90;;;;;;5033852;28;20481;-81
2022/01/14 03:18:53;;;;;;;17.90;12.30;;;1.10;99.90;;;;;;5051996;28;20437;-82
2022/01/14 03:21:28;;;;;;;16.47;11.23;;;1.10;99.90;;;;;;5081929;22;20841;-80
2022/01/14 03:24:15;;;;;;;23.30;11.80;;;1.10;99.90;;;;;;5053481;28;20537;-79
2022/01/14 03:26:42;;;;;;;28.13;12.57;;;1.10;99.90;;;;;;5056379;28;20457;-79
2022/01/14 03:29:08;;;;;;;22.23;12.90;;;1.00;99.90;;;;;;5052822;28;20423;-81
2022/01/14 03:31:34;;;;;;;18.83;11.37;;;1.00;99.90;;;;;;5053331;28;20410;-80
2022/01/14 03:34:00;;;;;;;17.73;10.20;;;1.00;99.90;;;;;;5053182;28;20462;-80
2022/01/14 03:36:26;;;;;;;19.57;11.13;;;1.00;99.90;;;;;;5052690;28;20422;-81
2022/01/14 03:38:51;;;;;;;18.60;10.67;;;1.00;99.90;;;;;;5052605;28;20175;-79
2022/01/14 03:41:17;;;;;;;22.00;11.73;;;1.00;99.90;;;;;;5052852;28;20254;-81
2022/01/14 03:43:43;;;;;;;22.57;13.37;;;0.90;99.90;;;;;;5052180;28;20204;-80
2022/01/14 03:46:09;;;;;;;27.33;12.50;;;1.00;99.90;;;;;;5052849;28;20181;-81
2022/01/14 03:48:35;;;;;;;18.83;12.20;;;1.00;99.90;;;;;;5052145;28;20210;-80
2022/01/14 03:51:01;;;;;;;25.40;12.93;;;1.00;99.90;;;;;;5052484;28;20787;-80
2022/01/14 03:53:27;;;;;;;23.57;13.70;;;1.00;99.90;;;;;;5051385;28;20468;-80
2022/01/14 03:55:52;;;;;;;23.73;11.70;;;1.10;99.90;;;;;;5052898;28;20179;-80
2022/01/14 03:58:18;;;;;;;21.37;12.33;;;1.10;99.90;;;;;;5051688;28;20414;-80
2022/01/14 04:00:44;;;;;;;17.10;12.03;;;1.10;99.90;;;;;;5052143;28;20415;-80
2022/01/14 04:03:10;;;;;;;24.47;12.97;;;1.10;99.90;;;;;;5051889;28;20441;-79
2022/01/14 04:05:36;;;;;;;23.30;12.70;;;1.20;99.90;;;;;;5051834;28;20462;-80
2022/01/14 04:08:03;;;;;;;20.67;12.07;;;1.20;99.90;;;;;;5051672;28;20234;-80
2022/01/14 04:10:29;;;;;;;24.57;13.70;;;1.20;99.90;;;;;;5052124;28;20414;-80
2022/01/14 04:13:02;;;;;;;21.50;12.87;;;1.30;99.90;;;;;;5051830;28;20467;-80
2022/01/14 04:15:41;;;;;;;23.33;14.33;;;1.20;99.90;;;;;;5051619;28;20425;-80
2022/01/14 04:18:13;;;;;;;23.40;12.70;;;1.20;99.90;;;;;;5051738;28;20412;-80
2022/01/14 04:20:40;;;;;;;21.33;12.93;;;1.30;99.90;;;;;;5051704;28;20880;-80
2022/01/14 04:23:07;;;;;;;23.63;13.70;;;1.30;99.90;;;;;;5052030;28;20462;-80
2022/01/14 04:25:36;;;;;;;19.10;12.80;;;1.30;99.90;;;;;;5052631;28;20514;-82
2022/01/14 04:28:04;;;;;;;23.27;12.87;;;1.30;99.90;;;;;;5055447;28;20430;-81
2022/01/14 04:30:30;;;;;;;24.73;14.30;;;1.30;99.90;;;;;;5054684;28;20799;-81
2022/01/14 04:32:56;;;;;;;25.67;13.70;;;1.30;99.90;;;;;;5054812;28;20467;-81
2022/01/14 04:35:22;;;;;;;19.30;12.67;;;1.30;99.90;;;;;;5054022;28;20510;-81
2022/01/14 04:37:48;;;;;;;26.87;13.50;;;1.20;99.90;;;;;;5053822;28;20467;-82
2022/01/14 04:40:14;;;;;;;20.53;13.07;;;1.20;99.90;;;;;;5054031;28;20184;-81
2022/01/14 04:42:42;;;;;;;18.77;11.43;;;1.30;99.90;;;;;;5053023;28;20227;-82
2022/01/14 04:45:09;;;;;;;23.30;12.60;;;1.30;99.90;;;;;;5053902;28;20925;-81
2022/01/14 04:47:44;;;;;;;22.07;11.37;;;1.30;99.90;;;;;;5053691;28;20793;-80
2022/01/14 04:50:17;;;;;;;18.40;10.20;;;1.20;99.90;;;;;;5053617;28;20414;-81
2022/01/14 04:52:45;;;;;;;21.13;12.13;;;1.20;99.90;;;;;;5053419;28;20469;-81
2022/01/14 04:55:11;;;;;;;22.00;12.37;;;1.20;99.90;;;;;;5053466;28;20418;-81
2022/01/14 04:57:38;;;;;;;19.97;11.80;;;1.20;99.90;;;;;;5052844;28;20418;-81
2022/01/14 05:00:07;;;;;;;18.83;10.90;;;1.20;99.90;;;;;;5052770;28;20514;-80
2022/01/14 05:02:33;;;;;;;24.10;12.60;;;1.10;99.90;;;;;;5036041;28;20439;-80
2022/01/14 05:04:59;;;;;;;17.23;11.30;;;1.20;99.90;;;;;;5037630;28;20425;-81
2022/01/14 05:07:27;;;;;;;24.27;11.70;;;1.10;99.90;;;;;;5055813;28;20418;-80
2022/01/14 05:10:09;;;;;;;18.50;10.27;;;1.10;99.90;;;;;;5040042;28;20422;-81
2022/01/14 05:12:38;;;;;;;23.10;11.40;;;1.10;99.90;;;;;;5047857;28;20478;-81
2022/01/14 05:15:05;;;;;;;24.10;13.50;;;1.10;99.90;;;;;;5039623;28;20426;-80
2022/01/14 05:17:31;;;;;;;21.87;13.13;;;1.10;99.90;;;;;;5039500;28;20777;-80
2022/01/14 05:19:58;;;;;;;15.83;11.13;;;1.10;99.90;;;;;;5039344;28;20423;-81
2022/01/14 05:22:25;;;;;;;20.20;11.00;;;1.00;99.90;;;;;;5039262;28;20504;-81
2022/01/14 05:24:50;;;;;;;19.43;11.70;;;1.00;99.90;;;;;;5039343;28;20422;-80
2022/01/14 05:27:16;;;;;;;20.20;11.20;;;1.10;99.90;;;;;;5038957;28;20414;-81
2022/01/14 05:29:42;;;;;;;17.50;9.93;;;1.00;99.90;;;;;;5039514;28;20177;-80
2022/01/14 05:32:12;;;;;;;19.57;10.00;;;1.00;99.90;;;;;;5038196;28;20805;-80
2022/01/14 05:34:39;;;;;;;20.27;10.70;;;1.00;99.90;;;;;;5039123;28;20173;-81
2022/01/14 05:37:06;;;;;;;18.67;10.80;;;0.90;99.90;;;;;;5038398;28;20953;-80
2022/01/14 05:39:32;;;;;;;19.47;11.13;;;0.90;99.90;;;;;;5038644;28;20912;-80
2022/01/14 05:42:00;;;;;;;17.23;11.83;;;0.90;99.90;;;;;;5038823;28;20431;-81
2022/01/14 05:44:27;;;;;;;19.50;11.57;;;0.90;99.90;;;;;;5038459;28;20799;-80
2022/01/14 05:46:54;;;;;;;18.77;10.73;;;0.90;99.90;;;;;;5038180;28;20410;-80
2022/01/14 05:49:21;;;;;;;17.57;10.93;;;0.80;99.90;;;;;;5038689;28;20913;-80
2022/01/14 05:51:47;;;;;;;19.17;12.23;;;0.80;99.90;;;;;;5038189;28;20484;-80
2022/01/14 05:54:14;;;;;;;21.10;11.07;;;0.90;99.90;;;;;;5038038;28;20462;-81
2022/01/14 05:56:40;;;;;;;16.90;11.03;;;0.80;99.90;;;;;;5037981;28;20915;-79
2022/01/14 05:59:06;;;;;;;18.70;12.30;;;0.80;99.90;;;;;;5038086;28;20425;-79
2022/01/14 06:01:32;;;;;;;18.57;11.33;;;0.80;99.90;;;;;;5037871;28;20414;-80
2022/01/14 06:03:59;;;;;;;19.23;11.13;;;0.80;99.90;;;;;;5038232;28;20176;-80
2022/01/14 06:06:24;;;;;;;21.83;11.07;;;0.80;99.90;;;;;;5038211;28;20965;-80
2022/01/14 06:08:51;;;;;;;18.87;10.37;;;0.70;99.90;;;;;;5037623;28;20427;-79
2022/01/14 06:11:17;;;;;;;17.40;10.53;;;0.70;99.90;;;;;;5037977;28;20662;-81
2022/01/14 06:13:43;;;;;;;20.87;10.83;;;0.70;99.90;;;;;;5037407;28;20466;-80
2022/01/14 06:16:09;;;;;;;17.57;10.33;;;0.70;99.90;;;;;;5037374;28;20421;-80
2022/01/14 06:18:35;;;;;;;19.40;10.63;;;0.70;99.90;;;;;;5037789;28;20427;-81
2022/01/14 06:21:00;;;;;;;17.40;11.00;;;0.70;99.90;;;;;;5037192;28;20471;-80
2022/01/14 06:23:26;;;;;;;19.43;11.90;;;0.60;99.90;;;;;;5037419;28;20286;-79
2022/01/14 06:25:52;;;;;;;24.03;10.87;;;0.70;99.90;;;;;;5037596;28;20184;-81
2022/01/14 06:28:18;;;;;;;18.93;11.83;;;0.60;99.90;;;;;;5037410;28;20651;-79
2022/01/14 06:30:43;;;;;;;18.17;10.40;;;0.60;99.90;;;;;;5037314;28;20184;-79
2022/01/14 06:33:09;;;;;;;21.70;10.43;;;0.60;99.90;;;;;;5037305;28;20725;-81
2022/01/14 06:35:36;;;;;;;20.13;12.80;;;0.60;99.90;;;;;;5037481;28;20410;-79
2022/01/14 06:38:02;;;;;;;25.03;13.37;;;0.60;99.90;;;;;;5037155;28;21055;-80
2022/01/14 06:40:29;;;;;;;18.17;11.77;;;0.60;99.90;;;;;;5037003;28;20812;-80
2022/01/14 06:42:55;;;;;;;17.07;11.67;;;0.60;99.90;;;;;;5037257;28;20564;-80
2022/01/14 06:45:22;;;;;;;18.97;10.53;;;0.60;99.90;;;;;;5037534;28;20929;-79
2022/01/14 06:47:51;;;;;;;15.10;10.97;;;0.60;99.90;;;;;;5036708;28;20427;-80
2022/01/14 06:50:17;;;;;;;19.80;11.43;;;0.60;99.90;;;;;;5037118;28;20441;-79
2022/01/14 06:52:44;;;;;;;20.50;11.50;;;0.60;99.90;;;;;;5037088;28;20559;-80
2022/01/14 06:55:10;;;;;;;21.47;11.53;;;0.60;99.90;;;;;;5036906;28;20411;-79
2022/01/14 06:57:36;;;;;;;22.63;13.77;;;0.60;99.90;;;;;;5036347;28;20434;-80
2022/01/14 07:00:13;;;;;;;27.43;12.10;;;0.60;99.90;;;;;;5037188;28;20778;-80
2022/01/14 07:02:39;;;;;;;18.80;10.90;;;0.60;99.90;;;;;;5036726;28;20448;-79
2022/01/14 07:05:07;;;;;;;16.57;11.27;;;0.70;99.90;;;;;;5037101;28;20484;-79
2022/01/14 07:07:33;;;;;;;21.57;11.07;;;0.70;99.90;;;;;;5036379;28;20968;-80
2022/01/14 07:09:59;;;;;;;21.83;11.80;;;0.70;99.90;;;;;;5036692;28;20453;-79
2022/01/14 07:12:29;;;;;;;19.50;11.60;;;0.70;99.90;;;;;;5036690;28;20515;-80
2022/01/14 07:14:59;;;;;;;23.87;12.27;;;0.70;99.90;;;;;;5036474;28;20416;-79
2022/01/14 07:17:26;;;;;;;22.20;12.87;;;0.60;99.90;;;;;;5036304;28;20441;-79
2022/01/14 07:19:54;;;;;;;20.57;12.57;;;0.60;99.90;;;;;;5036334;28;20418;-80
2022/01/14 07:22:21;;;;;;;22.70;12.93;;;0.60;99.90;;;;;;5037784;28;20450;-82
2022/01/14 07:24:47;;;;;;;21.70;13.23;;;0.70;99.90;;;;;;5039595;28;20411;-82
2022/01/14 07:27:14;;;;;;;22.00;13.07;;;0.70;99.90;;;;;;5039150;28;20430;-82
2022/01/14 07:29:40;;;;;;;23.00;13.30;;;0.60;99.90;;;;;;5039340;28;20406;-81
2022/01/14 07:32:08;;;;;;;20.03;11.73;;;0.60;99.90;;;;;;5039039;28;20445;-83
2022/01/14 07:34:34;;;;;;;21.33;10.97;;;0.60;99.90;;;;;;5038205;28;20454;-82
2022/01/14 07:37:00;;;;;;;19.30;11.70;;;0.60;99.90;;;;;;5037760;28;20762;-82
2022/01/14 07:39:25;;;;;;;20.33;11.83;;;0.60;99.90;;;;;;5037663;28;20509;-82
2022/01/14 07:41:52;;;;;;;18.90;10.93;;;0.70;99.90;;;;;;5037970;28;20856;-82
2022/01/14 07:44:19;;;;;;;21.80;12.37;;;0.70;99.90;;;;;;5037489;28;20414;-81
2022/01/14 07:46:47;;;;;;;19.17;12.43;;;0.70;99.90;;;;;;5037232;28;20414;-82
2022/01/14 07:49:14;;;;;;;22.37;13.40;;;0.70;99.90;;;;;;5037247;28;20433;-82
2022/01/14 07:51:40;;;;;;;21.37;12.50;;;0.80;99.90;;;;;;5037028;28;20441;-81
2022/01/14 07:54:06;;;;;;;23.60;10.90;;;0.80;99.90;;;;;;5037776;28;20460;-81
2022/01/14 07:56:45;;;;;;;20.63;11.93;;;0.80;99.90;;;;;;5037649;28;20505;-82
2022/01/14 07:59:14;;;;;;;16.87;11.30;;;0.90;99.90;;;;;;5038891;28;20415;-82
2022/01/14 08:01:41;;;;;;;21.53;12.03;;;0.90;99.90;;;;;;5038501;28;20418;-81
2022/01/14 08:04:07;;;;;;;21.17;12.20;;;1.00;99.90;;;;;;5038755;28;20779;-82
2022/01/14 08:06:37;;;;;;;20.20;12.27;;;1.00;99.90;;;;;;5038055;28;20867;-81
2022/01/14 08:09:06;;;;;;;19.50;12.13;;;1.00;99.90;;;;;;5038044;28;20529;-81
2022/01/14 08:11:32;;;;;;;22.40;12.43;;;1.10;99.90;;;;;;5037348;28;20809;-82
2022/01/14 08:13:57;;;;;;;22.17;13.10;;;1.20;99.90;;;;;;5037563;28;20461;-81
2022/01/14 08:16:23;;;;;;;19.20;11.93;;;1.20;99.90;;;;;;5037682;28;20191;-82
2022/01/14 08:18:49;;;;;;;26.20;12.90;;;1.20;99.90;;;;;;5036310;28;20303;-83
2022/01/14 08:21:15;;;;;;;20.60;11.83;;;1.30;99.90;;;;;;5035857;28;20277;-82
2022/01/14 08:23:41;;;;;;;19.00;12.13;;;1.30;99.90;;;;;;5037236;28;20200;-81
2022/01/14 08:26:07;;;;;;;18.60;12.00;;;1.40;99.90;;;;;;5036419;28;20433;-82
2022/01/14 08:28:33;;;;;;;19.13;13.10;;;1.50;99.90;;;;;;5036017;28;20438;-82
2022/01/14 08:30:59;;;;;;;18.20;11.73;;;1.50;99.90;;;;;;5036100;28;20891;-81
2022/01/14 08:33:25;;;;;;;21.83;12.77;;;1.50;99.90;;;;;;5036468;28;20494;-82
2022/01/14 08:35:51;;;;;;;18.40;11.70;;;1.60;99.90;;;;;;5035951;28;20477;-81
2022/01/14 08:38:17;;;;;;;22.00;12.50;;;1.60;99.90;;;;;;5036788;28;20188;-82
2022/01/14 08:40:42;;;;;;;19.40;12.13;;;1.70;99.90;;;;;;5035576;28;21027;-82
2022/01/14 08:43:08;;;;;;;21.57;11.70;;;1.70;99.90;;;;;;5035892;28;20612;-81
2022/01/14 08:45:34;;;;;;;20.63;13.03;;;1.70;99.90;;;;;;5035702;28;20197;-82
2022/01/14 08:48:00;;;;;;;26.53;14.00;;;1.80;99.90;;;;;;5036024;28;20538;-82
2022/01/14 08:50:35;;;;;;;20.97;12.43;;;1.90;99.90;;;;;;5036894;28;20526;-81
2022/01/14 08:53:01;;;;;;;18.00;11.53;;;1.90;99.90;;;;;;5036388;28;20296;-81
2022/01/14 08:55:27;;;;;;;19.70;12.27;;;2.00;99.90;;;;;;5036242;28;20413;-82
2022/01/14 08:57:54;;;;;;;22.83;13.03;;;1.90;99.90;;;;;;5035615;28;20512;-81
2022/01/14 09:00:25;;;;;;;16.57;12.00;;;1.90;99.90;;;;;;5036680;28;20937;-82
2022/01/14 09:02:51;;;;;;;24.33;13.27;;;2.00;99.90;;;;;;5035124;28;20455;-81
2022/01/14 09:05:18;;;;;;;25.70;14.63;;;2.10;99.90;;;;;;5035198;28;20417;-82
2022/01/14 09:07:45;;;;;;;21.33;12.83;;;2.10;99.90;;;;;;5034363;28;20428;-81
2022/01/14 09:10:11;;;;;;;20.60;13.17;;;2.20;99.90;;;;;;5034731;28;20437;-83
2022/01/14 09:12:37;;;;;;;20.07;12.30;;;2.20;99.90;;;;;;5034099;28;20479;-82
2022/01/14 09:15:07;;;;;;;24.77;11.90;;;2.20;99.90;;;;;;5034542;28;20433;-81
2022/01/14 09:17:33;;;;;;;19.60;12.87;;;2.30;99.90;;;;;;5035914;28;20194;-81
2022/01/14 09:20:01;;;;;;;27.07;12.17;;;2.40;99.90;;;;;;5036713;28;20410;-81
2022/01/14 09:22:28;;;;;;;19.37;13.67;;;2.40;99.90;;;;;;5028576;22;20504;-82
2022/01/14 09:24:57;;;;;;;22.53;13.10;;;2.40;99.90;;;;;;4994079;28;20949;-80
2022/01/14 09:27:23;;;;;;;22.57;12.80;;;2.50;99.90;;;;;;4993637;28;20881;-80
2022/01/14 09:29:49;;;;;;;19.20;12.33;;;2.60;99.90;;;;;;4991453;28;20438;-83
2022/01/14 09:32:15;;;;;;;24.07;13.80;;;2.70;99.90;;;;;;5011520;28;20869;-82
2022/01/14 09:34:40;;;;;;;18.83;12.50;;;2.80;99.90;;;;;;5010738;28;20181;-80
2022/01/14 09:37:06;;;;;;;22.00;13.27;;;2.90;99.90;;;;;;5011878;28;20187;-81
2022/01/14 09:39:33;;;;;;;20.60;12.50;;;3.00;99.90;;;;;;5012382;28;20182;-81
2022/01/14 09:41:59;;;;;;;23.70;13.97;;;3.20;99.90;;;;;;4995751;28;20894;-82
2022/01/14 09:44:25;;;;;;;23.33;11.23;;;3.20;99.90;;;;;;5011207;28;20455;-81
2022/01/14 09:46:51;;;;;;;18.23;11.70;;;3.30;99.90;;;;;;5012372;28;20422;-80
2022/01/14 09:49:18;;;;;;;17.30;11.30;;;3.40;99.90;;;;;;5011790;28;20734;-80
2022/01/14 09:51:43;;;;;;;22.83;13.50;;;3.50;99.90;;;;;;5011950;28;20446;-81
2022/01/14 09:54:10;;;;;;;19.13;11.60;;;3.60;99.90;;;;;;4999473;28;20463;-81
2022/01/14 09:56:37;;;;;;;18.70;12.00;;;3.70;99.90;;;;;;4997562;28;20173;-81
2022/01/14 09:59:03;;;;;;;23.20;15.07;;;3.80;99.90;;;;;;5016691;28;20866;-81
2022/01/14 10:01:38;;;;;;;17.90;12.30;;;3.90;99.90;;;;;;4999702;28;20534;-80
2022/01/14 10:04:04;;;;;;;18.67;11.83;;;4.00;99.90;;;;;;5016263;28;20415;-80
2022/01/14 10:06:47;;;;;;;20.50;12.77;;;4.10;99.90;;;;;;5014894;28;20432;-81
2022/01/14 10:09:21;;;;;;;16.67;11.70;;;4.20;99.90;;;;;;5000498;28;20208;-82
2022/01/14 10:12:05;;;;;;;18.83;12.70;;;4.30;99.90;;;;;;5000026;28;20449;-82
2022/01/14 10:14:56;;;;;;;17.77;11.70;;;4.40;99.90;;;;;;5018669;28;20405;-82
2022/01/14 10:17:24;;;;;;;18.80;13.30;;;4.50;99.90;;;;;;4998536;28;20438;-81
2022/01/14 10:19:51;;;;;;;20.37;13.07;;;4.50;99.90;;;;;;4998985;28;20409;-81
2022/01/14 10:22:27;;;;;;;25.97;13.20;;;4.60;99.90;;;;;;5000064;28;20827;-81
2022/01/14 10:25:01;;;;;;;21.80;13.80;;;4.70;99.90;;;;;;5016688;28;20473;-81
2022/01/14 10:27:35;;;;;;;20.77;13.00;;;4.90;99.90;;;;;;4999954;28;20429;-83
2022/01/14 10:30:14;;;;;;;23.23;14.53;;;5.00;99.90;;;;;;4999699;28;20426;-81
2022/01/14 10:32:41;;;;;;;18.70;13.50;;;5.20;99.90;;;;;;5000324;28;20470;-81
2022/01/14 10:35:10;;;;;;;17.70;12.10;;;5.20;99.90;;;;;;5000274;28;20423;-82
2022/01/14 10:37:36;;;;;;;20.03;13.00;;;5.40;99.90;;;;;;5000252;28;20450;-83
2022/01/14 10:40:22;;;;;;;17.83;12.43;;;5.70;99.90;;;;;;4995731;28;20436;-82
2022/01/14 10:42:50;;;;;;;23.13;13.50;;;6.10;99.90;;;;;;4988968;28;20427;-81
2022/01/14 10:45:22;;;;;;;18.47;12.80;;;6.40;99.90;;;;;;4993678;28;20424;-83
2022/01/14 10:47:54;;;;;;;19.60;14.10;;;6.60;99.90;;;;;;5003601;28;20442;-82
2022/01/14 10:50:27;;;;;;;16.60;11.70;;;6.70;99.90;;;;;;5014094;28;20427;-82
2022/01/14 10:52:53;;;;;;;20.97;13.80;;;6.80;99.90;;;;;;4996615;28;20459;-82
2022/01/14 10:55:33;;;;;;;25.70;16.30;;;6.90;99.90;;;;;;5013843;28;20499;-80
2022/01/14 10:58:02;;;;;;;25.80;16.90;;;6.90;99.90;;;;;;4996341;28;20165;-83
2022/01/14 11:00:28;;;;;;;27.97;16.67;;;6.90;99.90;;;;;;4995976;28;20420;-82
2022/01/14 11:02:56;;;;;;;28.50;18.40;;;6.70;99.90;;;;;;5013595;28;20766;-82
2022/01/14 11:05:23;;;;;;;35.10;18.97;;;6.60;99.90;;;;;;5012367;28;20438;-82
2022/01/14 11:07:51;;;;;;;30.53;18.57;;;6.50;99.90;;;;;;5014234;28;20480;-81
2022/01/14 11:10:26;;;;;;;31.10;19.17;;;6.40;99.90;;;;;;4995844;28;20966;-81
2022/01/14 11:12:54;;;;;;;36.50;21.00;;;6.30;99.90;;;;;;4996534;28;20451;-81
2022/01/14 11:15:21;;;;;;;35.60;20.53;;;6.20;99.90;;;;;;5011654;28;20426;-82
2022/01/14 11:17:51;;;;;;;45.60;19.70;;;6.00;99.90;;;;;;5013575;28;21002;-82
2022/01/14 11:20:29;;;;;;;34.17;21.27;;;6.00;99.90;;;;;;5013510;28;20461;-81
2022/01/14 11:26:04;;;;;;;31.20;20.47;;;5.80;99.90;;;;;;5016141;28;20403;-80
2022/01/14 11:28:41;;;;;;;42.43;20.83;;;5.70;99.90;;;;;;5013780;28;20411;-80
2022/01/14 11:31:29;;;;;;;36.93;20.73;;;5.70;99.90;;;;;;5013983;28;20960;-82
2022/01/14 11:33:57;;;;;;;38.60;22.90;;;5.60;99.90;;;;;;5013087;28;20450;-82
2022/01/14 11:36:22;;;;;;;39.27;20.43;;;5.60;99.90;;;;;;5012161;28;20472;-82
2022/01/14 11:38:48;;;;;;;39.07;20.27;;;5.60;99.90;;;;;;4995622;28;20449;-82
2022/01/14 11:41:42;;;;;;;43.17;22.97;;;5.60;99.90;;;;;;5012097;28;20200;-81
2022/01/14 11:44:09;;;;;;;35.90;21.80;;;5.60;99.90;;;;;;5011935;28;20520;-82
2022/01/14 11:46:42;;;;;;;43.30;23.57;;;5.50;99.90;;;;;;5002849;28;20469;-82
2022/01/14 11:49:31;;;;;;;45.60;21.97;;;5.50;99.90;;;;;;4988840;28;20569;-84
2022/01/14 11:52:00;;;;;;;52.13;23.43;;;5.50;99.90;;;;;;5000396;28;20444;-84
2022/01/14 11:54:44;;;;;;;44.07;23.23;;;5.40;99.90;;;;;;5018893;28;20458;-84
2022/01/14 11:57:13;;;;;;;44.97;21.50;;;5.50;99.90;;;;;;5000241;28;20405;-83
2022/01/14 11:59:41;;;;;;;44.80;21.67;;;5.50;99.90;;;;;;5000170;28;20430;-83
2022/01/14 12:02:28;;;;;;;43.10;24.00;;;5.50;99.90;;;;;;4999433;28;20519;-81
2022/01/14 12:05:03;;;;;;;40.13;21.43;;;5.50;99.90;;;;;;5016659;28;20429;-83
2022/01/14 12:07:29;;;;;;;42.60;22.83;;;5.50;99.90;;;;;;4999286;28;20433;-82
2022/01/14 12:10:07;;;;;;;46.53;21.03;;;5.50;99.90;;;;;;5002474;28;20427;-81
2022/01/14 12:12:34;;;;;;;47.23;22.87;;;5.50;99.90;;;;;;4993657;28;20219;-84
2022/01/14 12:15:04;;;;;;;48.00;22.90;;;5.60;99.90;;;;;;4997333;28;20446;-83
2022/01/14 12:17:40;;;;;;;42.20;22.43;;;5.50;99.90;;;;;;5015247;28;20422;-84
2022/01/14 12:20:10;;;;;;;42.43;20.23;;;5.50;99.90;;;;;;4998291;28;20413;-84
2022/01/14 12:22:36;;;;;;;36.60;17.70;;;5.50;99.90;;;;;;5015708;28;20512;-84
2022/01/14 12:25:03;;;;;;;39.80;19.47;;;5.50;99.90;;;;;;5015987;28;20421;-83
2022/01/14 12:27:46;;;;;;;43.23;18.93;;;5.50;99.90;;;;;;4998029;28;20427;-82
2022/01/14 12:30:25;;;;;;;40.93;18.87;;;5.60;99.90;;;;;;5015876;28;20406;-82
2022/01/14 12:32:54;;;;;;;29.87;16.97;;;5.70;99.90;;;;;;4998010;28;20466;-83
2022/01/14 12:35:27;;;;;;;45.43;19.93;;;5.80;99.90;;;;;;4997147;28;20531;-83
2022/01/14 12:37:55;;;;;;;43.83;19.40;;;5.80;99.90;;;;;;4995236;28;20433;-83
2022/01/14 12:40:23;;;;;;;40.50;19.60;;;5.90;99.90;;;;;;4994982;28;20518;-83
2022/01/14 12:42:55;;;;;;;43.30;19.00;;;5.90;99.90;;;;;;4995218;28;20445;-83
2022/01/14 12:45:27;;;;;;;45.60;19.43;;;5.90;99.90;;;;;;4995141;28;20469;-83
2022/01/14 12:48:29;;;;;;;55.47;24.67;;;5.90;99.90;;;;;;4994924;28;20445;-83
2022/01/14 12:51:03;;;;;;;48.27;26.10;;;5.90;99.90;;;;;;4995287;28;20437;-83
2022/01/14 12:53:28;;;;;;;55.00;24.73;;;5.90;99.90;;;;;;4995487;28;20465;-83
2022/01/14 12:55:54;;;;;;;58.50;24.70;;;5.90;99.90;;;;;;4995166;28;20787;-83
2022/01/14 12:58:19;;;;;;;49.20;23.80;;;5.80;99.90;;;;;;4995929;28;20260;-83
2022/01/14 13:00:45;;;;;;;43.13;21.33;;;5.80;99.90;;;;;;5012998;28;20203;-83
2022/01/14 13:03:15;;;;;;;51.63;23.33;;;5.80;99.90;;;;;;5011933;28;20212;-83